sensor_id;sensor_type;location;lat;lon;timestamp;pressure;altitude;pressure_sealevel;temperature;humidity
56630;BME280;42502;40.732;-74.254;2023-02-12T00:01:33;101592.16;;;21.01;30.56
56630;BME280;42502;40.732;-74.254;2023-02-12T00:03:35;101586.41;;;20.98;30.84
56630;BME280;42502;40.732;-74.254;2023-02-12T00:05:37;101585.72;;;21.01;30.92
56630;BME280;42502;40.732;-74.254;2023-02-12T00:07:38;101592.50;;;21.00;30.90
56630;BME280;42502;40.732;-74.254;2023-02-12T00:09:39;101595.66;;;20.98;30.87
56630;BME280;42502;40.732;-74.254;2023-02-12T00:11:40;101553.75;;;20.75;30.59
56630;BME280;42502;40.732;-74.254;2023-02-12T00:13:41;101593.50;;;20.95;30.81
56630;BME280;42502;40.732;-74.254;2023-02-12T00:15:45;101590.88;;;20.90;30.76
56630;BME280;42502;40.732;-74.254;2023-02-12T00:17:46;101588.28;;;20.85;30.98
56630;BME280;42502;40.732;-74.254;2023-02-12T00:19:47;101611.88;;;20.92;31.00
56630;BME280;42502;40.732;-74.254;2023-02-12T00:21:48;101606.59;;;20.91;30.88
56630;BME280;42502;40.732;-74.254;2023-02-12T00:23:49;101609.41;;;20.91;30.93
56630;BME280;42502;40.732;-74.254;2023-02-12T00:25:52;101599.00;;;20.83;30.86
56630;BME280;42502;40.732;-74.254;2023-02-12T00:27:53;101611.22;;;20.87;30.84
56630;BME280;42502;40.732;-74.254;2023-02-12T00:29:54;101598.00;;;20.87;30.84
56630;BME280;42502;40.732;-74.254;2023-02-12T00:31:58;101597.50;;;20.85;30.77
56630;BME280;42502;40.732;-74.254;2023-02-12T00:33:59;101594.69;;;20.85;30.71
56630;BME280;42502;40.732;-74.254;2023-02-12T00:36:00;101586.81;;;20.79;31.02
56630;BME280;42502;40.732;-74.254;2023-02-12T00:38:01;101584.31;;;20.77;30.86
56630;BME280;42502;40.732;-74.254;2023-02-12T00:40:02;101583.16;;;20.78;30.80
56630;BME280;42502;40.732;-74.254;2023-02-12T00:44:05;101585.16;;;20.77;30.80
56630;BME280;42502;40.732;-74.254;2023-02-12T00:46:06;101577.88;;;20.76;30.85
56630;BME280;42502;40.732;-74.254;2023-02-12T00:48:07;101592.75;;;20.77;31.07
56630;BME280;42502;40.732;-74.254;2023-02-12T00:50:08;101599.19;;;20.77;30.87
56630;BME280;42502;40.732;-74.254;2023-02-12T00:52:09;101590.25;;;20.75;30.99
56630;BME280;42502;40.732;-74.254;2023-02-12T00:54:10;101595.88;;;20.75;30.93
56630;BME280;42502;40.732;-74.254;2023-02-12T00:56:11;101598.66;;;20.75;30.85
56630;BME280;42502;40.732;-74.254;2023-02-12T00:58:12;101604.13;;;20.72;31.05
56630;BME280;42502;40.732;-74.254;2023-02-12T01:00:16;101612.22;;;20.73;31.09
56630;BME280;42502;40.732;-74.254;2023-02-12T01:02:17;101603.16;;;20.68;30.95
56630;BME280;42502;40.732;-74.254;2023-02-12T01:04:18;101622.47;;;20.69;30.99
56630;BME280;42502;40.732;-74.254;2023-02-12T01:06:19;101594.72;;;20.50;31.01
56630;BME280;42502;40.732;-74.254;2023-02-12T01:08:20;101633.69;;;20.69;30.91
56630;BME280;42502;40.732;-74.254;2023-02-12T01:10:21;101644.94;;;20.69;31.06
56630;BME280;42502;40.732;-74.254;2023-02-12T01:12:22;101640.50;;;20.68;30.99
56630;BME280;42502;40.732;-74.254;2023-02-12T01:14:23;101634.88;;;20.68;30.99
56630;BME280;42502;40.732;-74.254;2023-02-12T01:16:27;101640.81;;;20.67;31.12
56630;BME280;42502;40.732;-74.254;2023-02-12T01:18:30;101650.06;;;20.67;31.00
56630;BME280;42502;40.732;-74.254;2023-02-12T01:20:31;101641.47;;;20.64;31.19
56630;BME280;42502;40.732;-74.254;2023-02-12T01:22:35;101653.50;;;20.64;31.12
56630;BME280;42502;40.732;-74.254;2023-02-12T01:24:36;101650.69;;;20.64;31.12
56630;BME280;42502;40.732;-74.254;2023-02-12T01:26:37;101649.88;;;20.64;31.15
56630;BME280;42502;40.732;-74.254;2023-02-12T01:28:42;101654.00;;;20.57;31.02
56630;BME280;42502;40.732;-74.254;2023-02-12T01:30:43;101667.38;;;20.61;30.94
56630;BME280;42502;40.732;-74.254;2023-02-12T01:32:44;101664.41;;;20.57;31.10
56630;BME280;42502;40.732;-74.254;2023-02-12T01:34:45;101661.78;;;20.61;30.97
56630;BME280;42502;40.732;-74.254;2023-02-12T01:36:46;101649.72;;;20.51;30.93
56630;BME280;42502;40.732;-74.254;2023-02-12T01:38:50;101657.31;;;20.59;31.02
56630;BME280;42502;40.732;-74.254;2023-02-12T01:40:50;101672.34;;;20.55;30.90
56630;BME280;42502;40.732;-74.254;2023-02-12T01:42:51;101672.00;;;20.56;31.02
56630;BME280;42502;40.732;-74.254;2023-02-12T01:47:16;101679.94;;;20.54;31.08
56630;BME280;42502;40.732;-74.254;2023-02-12T01:49:21;101665.06;;;20.54;30.96
56630;BME280;42502;40.732;-74.254;2023-02-12T01:51:24;101651.69;;;20.51;31.08
56630;BME280;42502;40.732;-74.254;2023-02-12T01:53:30;101661.75;;;20.52;31.00
56630;BME280;42502;40.732;-74.254;2023-02-12T01:55:32;101662.91;;;20.51;30.92
56630;BME280;42502;40.732;-74.254;2023-02-12T01:57:37;101655.66;;;20.50;31.14
56630;BME280;42502;40.732;-74.254;2023-02-12T01:59:41;101656.81;;;20.49;31.05
56630;BME280;42502;40.732;-74.254;2023-02-12T02:01:46;101647.38;;;20.45;30.93
56630;BME280;42502;40.732;-74.254;2023-02-12T02:03:49;101636.16;;;20.45;31.06
56630;BME280;42502;40.732;-74.254;2023-02-12T02:06:00;101626.09;;;20.44;31.29
56630;BME280;42502;40.732;-74.254;2023-02-12T02:08:03;101624.78;;;20.41;30.98
56630;BME280;42502;40.732;-74.254;2023-02-12T02:10:05;101619.50;;;20.39;31.00
56630;BME280;42502;40.732;-74.254;2023-02-12T02:12:06;101625.59;;;20.41;30.73
56630;BME280;42502;40.732;-74.254;2023-02-12T02:14:26;101625.44;;;20.38;30.70
56630;BME280;42502;40.732;-74.254;2023-02-12T02:16:33;101637.16;;;20.40;30.87
56630;BME280;42502;40.732;-74.254;2023-02-12T02:21:17;101635.81;;;20.37;31.20
56630;BME280;42502;40.732;-74.254;2023-02-12T02:23:44;101630.88;;;20.34;31.04
56630;BME280;42502;40.732;-74.254;2023-02-12T02:26:12;101623.31;;;20.35;31.06
56630;BME280;42502;40.732;-74.254;2023-02-12T02:30:51;101616.34;;;20.32;30.85
56630;BME280;42502;40.732;-74.254;2023-02-12T02:37:46;101585.16;;;20.25;30.72
56630;BME280;42502;40.732;-74.254;2023-02-12T02:44:56;101587.16;;;20.24;30.84
56630;BME280;42502;40.732;-74.254;2023-02-12T02:47:00;101585.00;;;20.21;30.70
56630;BME280;42502;40.732;-74.254;2023-02-12T02:49:15;101571.47;;;20.15;30.88
56630;BME280;42502;40.732;-74.254;2023-02-12T02:51:25;101576.91;;;20.20;30.96
56630;BME280;42502;40.732;-74.254;2023-02-12T02:53:46;101579.56;;;20.16;30.82
56630;BME280;42502;40.732;-74.254;2023-02-12T02:55:54;101577.25;;;20.18;30.76
56630;BME280;42502;40.732;-74.254;2023-02-12T02:57:59;101574.09;;;20.11;30.80
56630;BME280;42502;40.732;-74.254;2023-02-12T03:02:52;101578.56;;;20.12;30.72
56630;BME280;42502;40.732;-74.254;2023-02-12T03:05:09;101583.00;;;20.13;30.69
56630;BME280;42502;40.732;-74.254;2023-02-12T03:07:19;101584.50;;;20.11;30.43
56630;BME280;42502;40.732;-74.254;2023-02-12T03:11:36;101572.75;;;20.09;30.58
56630;BME280;42502;40.732;-74.254;2023-02-12T03:13:42;101566.66;;;20.06;30.73
56630;BME280;42502;40.732;-74.254;2023-02-12T03:15:47;101573.94;;;20.08;30.50
56630;BME280;42502;40.732;-74.254;2023-02-12T03:17:50;101565.66;;;20.02;30.34
56630;BME280;42502;40.732;-74.254;2023-02-12T03:20:00;101580.22;;;20.04;30.54
56630;BME280;42502;40.732;-74.254;2023-02-12T03:22:09;101570.63;;;19.97;30.38
56630;BME280;42502;40.732;-74.254;2023-02-12T03:24:18;101583.16;;;19.99;30.49
56630;BME280;42502;40.732;-74.254;2023-02-12T03:26:25;101584.81;;;20.00;30.25
56630;BME280;42502;40.732;-74.254;2023-02-12T03:28:34;101577.53;;;19.99;30.38
56630;BME280;42502;40.732;-74.254;2023-02-12T03:30:43;101584.34;;;19.98;30.39
56630;BME280;42502;40.732;-74.254;2023-02-12T03:49:42;101588.44;;;19.83;30.62
56630;BME280;42502;40.732;-74.254;2023-02-12T03:51:47;101585.28;;;19.85;30.66
56630;BME280;42502;40.732;-74.254;2023-02-12T03:53:59;101579.50;;;19.81;30.83
56630;BME280;42502;40.732;-74.254;2023-02-12T03:56:23;101557.03;;;19.73;30.83
56630;BME280;42502;40.732;-74.254;2023-02-12T03:58:27;101568.13;;;19.78;30.38
56630;BME280;42502;40.732;-74.254;2023-02-12T04:00:29;101556.91;;;19.78;30.58
56630;BME280;42502;40.732;-74.254;2023-02-12T04:02:30;101557.72;;;19.78;30.47
56630;BME280;42502;40.732;-74.254;2023-02-12T04:04:31;101558.91;;;19.77;30.50
56630;BME280;42502;40.732;-74.254;2023-02-12T04:06:33;101550.59;;;19.72;30.74
56630;BME280;42502;40.732;-74.254;2023-02-12T04:08:35;101541.84;;;19.74;30.60
56630;BME280;42502;40.732;-74.254;2023-02-12T04:11:01;101535.44;;;19.73;30.72
56630;BME280;42502;40.732;-74.254;2023-02-12T04:13:16;101536.56;;;19.72;30.65
56630;BME280;42502;40.732;-74.254;2023-02-12T04:15:50;101534.09;;;19.70;30.82
56630;BME280;42502;40.732;-74.254;2023-02-12T04:18:16;101521.59;;;19.68;30.79
56630;BME280;42502;40.732;-74.254;2023-02-12T04:20:29;101528.81;;;19.69;30.59
56630;BME280;42502;40.732;-74.254;2023-02-12T04:22:49;101530.81;;;19.68;30.56
56630;BME280;42502;40.732;-74.254;2023-02-12T04:27:48;101512.50;;;19.62;30.81
56630;BME280;42502;40.732;-74.254;2023-02-12T04:30:03;101508.56;;;19.63;30.67
56630;BME280;42502;40.732;-74.254;2023-02-12T04:32:15;101505.22;;;19.61;30.64
56630;BME280;42502;40.732;-74.254;2023-02-12T04:37:09;101480.50;;;19.55;30.99
56630;BME280;42502;40.732;-74.254;2023-02-12T04:39:21;101474.09;;;19.54;30.70
56630;BME280;42502;40.732;-74.254;2023-02-12T04:41:24;101464.69;;;19.50;30.70
56630;BME280;42502;40.732;-74.254;2023-02-12T04:43:30;101471.28;;;19.54;30.88
56630;BME280;42502;40.732;-74.254;2023-02-12T04:45:35;101475.22;;;19.53;30.59
56630;BME280;42502;40.732;-74.254;2023-02-12T04:47:36;101473.09;;;19.50;30.98
56630;BME280;42502;40.732;-74.254;2023-02-12T04:49:37;101471.75;;;19.47;30.55
56630;BME280;42502;40.732;-74.254;2023-02-12T04:51:38;101475.88;;;19.50;30.45
56630;BME280;42502;40.732;-74.254;2023-02-12T04:53:38;101469.44;;;19.49;30.53
56630;BME280;42502;40.732;-74.254;2023-02-12T04:55:43;101447.34;;;19.39;30.69
56630;BME280;42502;40.732;-74.254;2023-02-12T04:57:44;101458.06;;;19.46;30.62
56630;BME280;42502;40.732;-74.254;2023-02-12T04:59:45;101455.25;;;19.46;30.62
56630;BME280;42502;40.732;-74.254;2023-02-12T05:01:46;101460.88;;;19.46;30.89
56630;BME280;42502;40.732;-74.254;2023-02-12T05:03:47;101468.78;;;19.44;30.60
56630;BME280;42502;40.732;-74.254;2023-02-12T05:05:48;101470.75;;;19.43;30.70
56630;BME280;42502;40.732;-74.254;2023-02-12T05:07:49;101453.78;;;19.40;30.73
56630;BME280;42502;40.732;-74.254;2023-02-12T05:09:53;101449.84;;;19.41;30.66
56630;BME280;42502;40.732;-74.254;2023-02-12T05:11:54;101445.69;;;19.38;30.87
56630;BME280;42502;40.732;-74.254;2023-02-12T05:13:55;101444.88;;;19.38;30.57
56630;BME280;42502;40.732;-74.254;2023-02-12T05:15:56;101436.47;;;19.38;30.68
56630;BME280;42502;40.732;-74.254;2023-02-12T05:17:57;101441.56;;;19.35;30.44
56630;BME280;42502;40.732;-74.254;2023-02-12T05:19:58;101437.13;;;19.34;30.63
56630;BME280;42502;40.732;-74.254;2023-02-12T05:21:59;101435.47;;;19.33;30.76
56630;BME280;42502;40.732;-74.254;2023-02-12T05:24:01;101438.28;;;19.33;30.70
56630;BME280;42502;40.732;-74.254;2023-02-12T05:26:08;101431.00;;;19.32;30.65
56630;BME280;42502;40.732;-74.254;2023-02-12T05:28:10;101435.66;;;19.28;30.66
56630;BME280;42502;40.732;-74.254;2023-02-12T05:30:13;101457.72;;;19.30;30.80
56630;BME280;42502;40.732;-74.254;2023-02-12T05:32:14;101459.69;;;19.29;30.66
56630;BME280;42502;40.732;-74.254;2023-02-12T05:34:15;101449.97;;;19.27;30.79
56630;BME280;42502;40.732;-74.254;2023-02-12T05:36:19;101448.00;;;19.27;30.65
56630;BME280;42502;40.732;-74.254;2023-02-12T05:38:21;101448.31;;;19.26;30.66
56630;BME280;42502;40.732;-74.254;2023-02-12T05:40:22;101457.38;;;19.23;30.82
56630;BME280;42502;40.732;-74.254;2023-02-12T05:42:25;101459.34;;;19.22;30.57
56630;BME280;42502;40.732;-74.254;2023-02-12T05:44:28;101460.19;;;19.23;30.52
56630;BME280;42502;40.732;-74.254;2023-02-12T05:46:30;101446.50;;;19.21;30.71
56630;BME280;42502;40.732;-74.254;2023-02-12T05:48:34;101447.63;;;19.20;30.52
56630;BME280;42502;40.732;-74.254;2023-02-12T05:50:38;101440.38;;;19.19;30.69
56630;BME280;42502;40.732;-74.254;2023-02-12T05:52:39;101415.50;;;19.09;30.44
56630;BME280;42502;40.732;-74.254;2023-02-12T05:54:40;101428.69;;;19.17;30.64
56630;BME280;42502;40.732;-74.254;2023-02-12T05:56:46;101419.78;;;19.15;30.70
56630;BME280;42502;40.732;-74.254;2023-02-12T05:58:48;101425.72;;;19.13;30.80
56630;BME280;42502;40.732;-74.254;2023-02-12T06:00:53;101403.78;;;19.07;30.59
56630;BME280;42502;40.732;-74.254;2023-02-12T06:02:54;101400.66;;;19.08;30.64
56630;BME280;42502;40.732;-74.254;2023-02-12T06:04:55;101402.63;;;19.08;30.78
56630;BME280;42502;40.732;-74.254;2023-02-12T06:06:56;101400.31;;;19.10;30.55
56630;BME280;42502;40.732;-74.254;2023-02-12T06:09:00;101397.84;;;19.08;30.71
56630;BME280;42502;40.732;-74.254;2023-02-12T06:11:05;101389.78;;;19.07;30.59
56630;BME280;42502;40.732;-74.254;2023-02-12T06:13:06;101376.59;;;18.98;30.61
56630;BME280;42502;40.732;-74.254;2023-02-12T06:15:07;101378.91;;;18.96;30.70
56630;BME280;42502;40.732;-74.254;2023-02-12T06:17:08;101379.06;;;19.00;30.63
56630;BME280;42502;40.732;-74.254;2023-02-12T06:19:09;101383.19;;;19.03;30.45
56630;BME280;42502;40.732;-74.254;2023-02-12T06:21:15;101383.19;;;19.03;30.52
56630;BME280;42502;40.732;-74.254;2023-02-12T06:23:16;101393.06;;;19.00;30.49
56630;BME280;42502;40.732;-74.254;2023-02-12T06:25:17;101371.97;;;18.94;30.49
56630;BME280;42502;40.732;-74.254;2023-02-12T06:27:18;101373.31;;;18.96;30.77
56630;BME280;42502;40.732;-74.254;2023-02-12T06:29:19;101380.53;;;18.97;30.46
56630;BME280;42502;40.732;-74.254;2023-02-12T06:31:32;101382.84;;;18.95;30.65
56630;BME280;42502;40.732;-74.254;2023-02-12T06:33:34;101394.03;;;18.95;30.37
56630;BME280;42502;40.732;-74.254;2023-02-12T06:35:37;101393.22;;;18.95;30.30
56630;BME280;42502;40.732;-74.254;2023-02-12T06:37:38;101390.75;;;18.93;30.60
56630;BME280;42502;40.732;-74.254;2023-02-12T06:39:39;101379.88;;;18.92;30.46
56630;BME280;42502;40.732;-74.254;2023-02-12T06:41:40;101378.22;;;18.91;30.49
56630;BME280;42502;40.732;-74.254;2023-02-12T06:43:42;101374.59;;;18.90;30.35
56630;BME280;42502;40.732;-74.254;2023-02-12T06:45:43;101373.59;;;18.86;30.46
56630;BME280;42502;40.732;-74.254;2023-02-12T06:47:44;101370.91;;;18.81;30.48
56630;BME280;42502;40.732;-74.254;2023-02-12T06:49:44;101386.44;;;18.87;30.46
56630;BME280;42502;40.732;-74.254;2023-02-12T06:51:45;101374.22;;;18.83;30.39
56630;BME280;42502;40.732;-74.254;2023-02-12T06:53:46;101387.91;;;18.85;30.37
56630;BME280;42502;40.732;-74.254;2023-02-12T06:55:47;101385.22;;;18.79;30.46
56630;BME280;42502;40.732;-74.254;2023-02-12T06:57:48;101392.66;;;18.84;30.38
56630;BME280;42502;40.732;-74.254;2023-02-12T06:59:49;101389.38;;;18.82;30.50
56630;BME280;42502;40.732;-74.254;2023-02-12T07:01:52;101379.47;;;18.76;30.54
56630;BME280;42502;40.732;-74.254;2023-02-12T07:03:55;101392.81;;;18.79;30.50
56630;BME280;42502;40.732;-74.254;2023-02-12T07:05:56;101382.75;;;18.78;30.28
56630;BME280;42502;40.732;-74.254;2023-02-12T07:07:57;101376.50;;;18.72;30.35
56630;BME280;42502;40.732;-74.254;2023-02-12T07:09:58;101379.47;;;18.76;30.49
56630;BME280;42502;40.732;-74.254;2023-02-12T07:11:59;101392.66;;;18.75;30.42
56630;BME280;42502;40.732;-74.254;2023-02-12T07:14:00;101385.72;;;18.73;30.37
56630;BME280;42502;40.732;-74.254;2023-02-12T07:16:08;101367.91;;;18.69;30.55
56630;BME280;42502;40.732;-74.254;2023-02-12T07:18:13;101368.09;;;18.72;30.29
56630;BME280;42502;40.732;-74.254;2023-02-12T07:20:14;101356.72;;;18.69;30.46
56630;BME280;42502;40.732;-74.254;2023-02-12T07:22:15;101346.38;;;18.69;30.47
56630;BME280;42502;40.732;-74.254;2023-02-12T07:24:16;101342.06;;;18.63;30.20
56630;BME280;42502;40.732;-74.254;2023-02-12T07:26:20;101348.66;;;18.67;30.29
56630;BME280;42502;40.732;-74.254;2023-02-12T07:28:21;101341.75;;;18.64;30.23
56630;BME280;42502;40.732;-74.254;2023-02-12T07:30:22;101338.94;;;18.64;30.25
56630;BME280;42502;40.732;-74.254;2023-02-12T07:32:23;101331.69;;;18.63;30.42
56630;BME280;42502;40.732;-74.254;2023-02-12T07:34:24;101325.28;;;18.63;30.34
56630;BME280;42502;40.732;-74.254;2023-02-12T07:36:31;101331.19;;;18.61;30.50
56630;BME280;42502;40.732;-74.254;2023-02-12T07:38:32;101333.16;;;18.61;30.25
56630;BME280;42502;40.732;-74.254;2023-02-12T07:40:38;101325.75;;;18.56;30.42
56630;BME280;42502;40.732;-74.254;2023-02-12T07:42:39;101324.28;;;18.59;30.42
56630;BME280;42502;40.732;-74.254;2023-02-12T07:44:40;101321.81;;;18.57;30.15
56630;BME280;42502;40.732;-74.254;2023-02-12T07:46:45;101319.31;;;18.56;30.53
56630;BME280;42502;40.732;-74.254;2023-02-12T07:48:47;101321.28;;;18.55;30.16
56630;BME280;42502;40.732;-74.254;2023-02-12T07:50:48;101322.44;;;18.54;30.08
56630;BME280;42502;40.732;-74.254;2023-02-12T07:52:50;101324.41;;;18.54;30.26
56630;BME280;42502;40.732;-74.254;2023-02-12T07:54:51;101321.94;;;18.52;30.22
56630;BME280;42502;40.732;-74.254;2023-02-12T07:56:52;101325.69;;;18.47;30.47
56630;BME280;42502;40.732;-74.254;2023-02-12T07:58:52;101326.69;;;18.43;30.29
56630;BME280;42502;40.732;-74.254;2023-02-12T08:00:53;101303.59;;;18.28;30.30
56630;BME280;42502;40.732;-74.254;2023-02-12T08:02:54;101334.94;;;18.48;30.06
56630;BME280;42502;40.732;-74.254;2023-02-12T08:04:56;101319.94;;;18.44;30.41
56630;BME280;42502;40.732;-74.254;2023-02-12T08:06:57;101321.72;;;18.40;30.12
56630;BME280;42502;40.732;-74.254;2023-02-12T08:09:00;101345.13;;;18.44;30.29
56630;BME280;42502;40.732;-74.254;2023-02-12T08:11:01;101346.09;;;18.39;30.28
56630;BME280;42502;40.732;-74.254;2023-02-12T08:13:02;101337.53;;;18.36;30.47
56630;BME280;42502;40.732;-74.254;2023-02-12T08:15:03;101339.31;;;18.32;30.35
56630;BME280;42502;40.732;-74.254;2023-02-12T08:17:04;101340.50;;;18.39;30.15
56630;BME280;42502;40.732;-74.254;2023-02-12T08:19:06;101334.22;;;18.34;30.38
56630;BME280;42502;40.732;-74.254;2023-02-12T08:21:12;101353.16;;;18.37;30.48
56630;BME280;42502;40.732;-74.254;2023-02-12T08:23:13;101337.53;;;18.36;30.32
56630;BME280;42502;40.732;-74.254;2023-02-12T08:25:14;101331.41;;;18.34;30.22
56630;BME280;42502;40.732;-74.254;2023-02-12T08:27:15;101332.72;;;18.27;30.33
56630;BME280;42502;40.732;-74.254;2023-02-12T08:29:18;101347.50;;;18.28;30.04
56630;BME280;42502;40.732;-74.254;2023-02-12T08:31:25;101353.31;;;18.32;30.16
56630;BME280;42502;40.732;-74.254;2023-02-12T08:33:26;101338.31;;;18.27;30.30
56630;BME280;42502;40.732;-74.254;2023-02-12T08:35:27;101327.63;;;18.29;30.27
56630;BME280;42502;40.732;-74.254;2023-02-12T08:37:28;101317.91;;;18.27;30.03
56630;BME280;42502;40.732;-74.254;2023-02-12T08:39:29;101306.19;;;18.25;30.15
56630;BME280;42502;40.732;-74.254;2023-02-12T08:41:30;101300.59;;;18.25;30.19
56630;BME280;42502;40.732;-74.254;2023-02-12T08:43:31;101311.78;;;18.25;30.05
56630;BME280;42502;40.732;-74.254;2023-02-12T08:45:32;101307.38;;;18.24;30.05
56630;BME280;42502;40.732;-74.254;2023-02-12T08:47:33;101287.09;;;18.18;29.93
56630;BME280;42502;40.732;-74.254;2023-02-12T08:49:34;101293.50;;;18.19;30.13
56630;BME280;42502;40.732;-74.254;2023-02-12T08:51:38;101292.38;;;18.20;30.02
56630;BME280;42502;40.732;-74.254;2023-02-12T08:53:43;101288.75;;;18.19;30.30
56630;BME280;42502;40.732;-74.254;2023-02-12T08:55:48;101282.16;;;18.15;30.13
56630;BME280;42502;40.732;-74.254;2023-02-12T08:57:49;101286.28;;;18.18;30.12
56630;BME280;42502;40.732;-74.254;2023-02-12T08:59:50;101274.41;;;18.12;29.84
56630;BME280;42502;40.732;-74.254;2023-02-12T09:01:51;101270.59;;;18.08;30.08
56630;BME280;42502;40.732;-74.254;2023-02-12T09:03:52;101275.56;;;18.11;29.92
56630;BME280;42502;40.732;-74.254;2023-02-12T09:05:53;101267.50;;;18.09;29.96
56630;BME280;42502;40.732;-74.254;2023-02-12T09:07:54;101266.69;;;18.09;30.20
56630;BME280;42502;40.732;-74.254;2023-02-12T09:09:55;101276.72;;;18.10;29.73
56630;BME280;42502;40.732;-74.254;2023-02-12T09:11:56;101248.88;;;18.05;30.07
56630;BME280;42502;40.732;-74.254;2023-02-12T09:14:00;101260.28;;;18.08;30.07
56630;BME280;42502;40.732;-74.254;2023-02-12T09:16:02;101261.72;;;18.06;30.22
56630;BME280;42502;40.732;-74.254;2023-02-12T09:18:04;101255.13;;;18.02;30.02
56630;BME280;42502;40.732;-74.254;2023-02-12T09:20:05;101262.88;;;18.05;30.16
56630;BME280;42502;40.732;-74.254;2023-02-12T09:22:06;101257.59;;;18.03;30.02
56630;BME280;42502;40.732;-74.254;2023-02-12T09:24:08;101260.72;;;18.02;29.86
56630;BME280;42502;40.732;-74.254;2023-02-12T09:26:11;101254.31;;;18.01;29.93
56630;BME280;42502;40.732;-74.254;2023-02-12T09:28:13;101251.50;;;18.01;30.01
56630;BME280;42502;40.732;-74.254;2023-02-12T09:30:14;101247.06;;;18.00;29.94
56630;BME280;42502;40.732;-74.254;2023-02-12T09:32:15;101244.59;;;17.99;29.93
56630;BME280;42502;40.732;-74.254;2023-02-12T09:34:16;101234.06;;;17.96;29.88
56630;BME280;42502;40.732;-74.254;2023-02-12T09:36:17;101242.13;;;17.97;30.06
56630;BME280;42502;40.732;-74.254;2023-02-12T09:38:18;101248.84;;;17.96;29.97
56630;BME280;42502;40.732;-74.254;2023-02-12T09:43:04;101253.94;;;17.94;29.98
56630;BME280;42502;40.732;-74.254;2023-02-12T09:45:15;101243.09;;;17.92;29.74
56630;BME280;42502;40.732;-74.254;2023-02-12T09:47:24;101231.50;;;17.85;29.99
56630;BME280;42502;40.732;-74.254;2023-02-12T09:51:50;101263.28;;;17.89;30.10
56630;BME280;42502;40.732;-74.254;2023-02-12T09:54:13;101253.22;;;17.88;30.01
56630;BME280;42502;40.732;-74.254;2023-02-12T09:56:17;101220.56;;;17.66;30.04
56630;BME280;42502;40.732;-74.254;2023-02-12T09:58:34;101258.97;;;17.83;30.30
56630;BME280;42502;40.732;-74.254;2023-02-12T10:00:38;101254.00;;;17.80;29.82
56630;BME280;42502;40.732;-74.254;2023-02-12T10:02:39;101264.38;;;17.80;29.81
56630;BME280;42502;40.732;-74.254;2023-02-12T10:04:45;101278.03;;;17.81;30.04
56630;BME280;42502;40.732;-74.254;2023-02-12T10:10:02;101275.88;;;17.78;30.12
56630;BME280;42502;40.732;-74.254;2023-02-12T10:12:15;101274.22;;;17.77;30.05
56630;BME280;42502;40.732;-74.254;2023-02-12T10:14:43;101268.94;;;17.75;29.99
56630;BME280;42502;40.732;-74.254;2023-02-12T10:16:51;101265.34;;;17.75;29.81
56630;BME280;42502;40.732;-74.254;2023-02-12T10:19:16;101262.03;;;17.73;30.04
56630;BME280;42502;40.732;-74.254;2023-02-12T10:26:55;101258.56;;;17.67;30.17
56630;BME280;42502;40.732;-74.254;2023-02-12T10:28:40;101245.41;;;17.68;30.16
56630;BME280;42502;40.732;-74.254;2023-02-12T10:30:48;101243.56;;;17.63;30.09
56630;BME280;42502;40.732;-74.254;2023-02-12T10:32:59;101247.69;;;17.66;30.05
56630;BME280;42502;40.732;-74.254;2023-02-12T10:35:13;101244.38;;;17.64;30.09
56630;BME280;42502;40.732;-74.254;2023-02-12T10:37:29;101239.63;;;17.64;29.98
56630;BME280;42502;40.732;-74.254;2023-02-12T10:39:35;101232.41;;;17.63;30.00
56630;BME280;42502;40.732;-74.254;2023-02-12T10:41:45;101213.81;;;17.58;30.03
56630;BME280;42502;40.732;-74.254;2023-02-12T10:43:48;101203.59;;;17.54;29.86
56630;BME280;42502;40.732;-74.254;2023-02-12T10:45:49;101226.59;;;17.59;30.10
56630;BME280;42502;40.732;-74.254;2023-02-12T10:47:53;101230.25;;;17.60;29.90
56630;BME280;42502;40.732;-74.254;2023-02-12T10:50:12;101218.38;;;17.54;30.17
56630;BME280;42502;40.732;-74.254;2023-02-12T10:52:47;101216.06;;;17.56;30.39
56630;BME280;42502;40.732;-74.254;2023-02-12T10:54:55;101215.59;;;17.54;30.33
56630;BME280;42502;40.732;-74.254;2023-02-12T10:56:57;101198.13;;;17.49;30.04
56630;BME280;42502;40.732;-74.254;2023-02-12T10:58:59;101213.44;;;17.51;30.15
56630;BME280;42502;40.732;-74.254;2023-02-12T11:01:04;101206.81;;;17.47;30.15
56630;BME280;42502;40.732;-74.254;2023-02-12T11:03:19;101210.97;;;17.50;30.07
56630;BME280;42502;40.732;-74.254;2023-02-12T11:05:25;101202.56;;;17.50;30.25
56630;BME280;42502;40.732;-74.254;2023-02-12T11:07:45;101209.28;;;17.49;30.15
56630;BME280;42502;40.732;-74.254;2023-02-12T11:09:54;101209.28;;;17.49;30.34
56630;BME280;42502;40.732;-74.254;2023-02-12T11:11:58;101199.41;;;17.43;30.05
56630;BME280;42502;40.732;-74.254;2023-02-12T11:14:06;101203.22;;;17.47;30.00
56630;BME280;42502;40.732;-74.254;2023-02-12T11:16:27;101202.72;;;17.45;30.10
56630;BME280;42502;40.732;-74.254;2023-02-12T11:18:30;101208.94;;;17.42;30.13
56630;BME280;42502;40.732;-74.254;2023-02-12T11:20:51;101217.00;;;17.43;30.34
56630;BME280;42502;40.732;-74.254;2023-02-12T11:23:01;101219.81;;;17.43;30.43
56630;BME280;42502;40.732;-74.254;2023-02-12T11:25:13;101223.56;;;17.38;30.10
56630;BME280;42502;40.732;-74.254;2023-02-12T11:29:23;101214.00;;;17.39;30.22
56630;BME280;42502;40.732;-74.254;2023-02-12T11:31:28;101217.66;;;17.40;30.11
56630;BME280;42502;40.732;-74.254;2023-02-12T11:33:31;101214.31;;;17.38;30.37
56630;BME280;42502;40.732;-74.254;2023-02-12T11:35:32;101207.13;;;17.37;30.23
56630;BME280;42502;40.732;-74.254;2023-02-12T11:37:39;101204.63;;;17.35;30.46